createdAt,value
2018-01-18T00:00:37.588Z,6.33
2018-01-18T00:01:47.161Z,6.36
2018-01-18T00:02:57.216Z,6.4
2018-01-18T00:04:07.082Z,6.46
2018-01-18T00:05:17.128Z,6.46
2018-01-18T00:06:26.657Z,6.49
2018-01-18T00:07:36.700Z,6.47
2018-01-18T00:08:46.479Z,6.54
2018-01-18T00:09:56.524Z,6.49
2018-01-18T00:11:06.579Z,6.54
2018-01-18T00:12:16.629Z,6.57
2018-01-18T00:13:26.712Z,6.55
2018-01-18T00:14:36.754Z,6.64
2018-01-18T00:15:46.858Z,6.7
2018-01-18T00:16:57.598Z,6.7
2018-01-18T00:18:07.661Z,6.68
2018-01-18T00:19:17.765Z,6.67
2018-01-18T00:20:27.797Z,6.78
2018-01-18T00:21:37.309Z,6.73
2018-01-18T00:22:47.389Z,6.8
2018-01-18T00:23:57.495Z,6.8
2018-01-18T00:25:07.529Z,6.78
2018-01-18T00:26:17.632Z,6.73
2018-01-18T00:27:27.682Z,6.79
2018-01-18T00:28:37.720Z,6.79
2018-01-18T00:29:47.754Z,6.76
2018-01-18T00:30:57.605Z,6.7
2018-01-18T00:32:07.391Z,6.7
2018-01-18T00:33:17.442Z,6.83
2018-01-18T00:34:27.488Z,6.83
2018-01-18T00:35:37.272Z,6.76
2018-01-18T00:36:47.334Z,6.91
2018-01-18T00:37:57.378Z,6.97
2018-01-18T00:39:07.431Z,6.86
2018-01-18T00:40:17.478Z,6.95
2018-01-18T00:41:27.517Z,6.98
2018-01-18T00:42:37.613Z,6.95
2018-01-18T00:43:47.411Z,6.97
2018-01-18T00:44:57.454Z,6.98
2018-01-18T00:46:07.494Z,7
2018-01-18T00:47:17.276Z,7
2018-01-18T00:48:27.107Z,7.01
2018-01-18T00:49:37.144Z,7
2018-01-18T00:50:47.184Z,7.01
2018-01-18T00:51:57.239Z,7.05
2018-01-18T00:53:07.277Z,7.13
2018-01-18T00:54:17.426Z,7.16
2018-01-18T00:55:27.471Z,7.08
2018-01-18T00:56:37.520Z,7.12
2018-01-18T00:57:47.557Z,7.05
2018-01-18T00:58:57.609Z,7.13
2018-01-18T01:00:07.702Z,7.21
2018-01-18T01:01:17.758Z,7.09
2018-01-18T01:02:27.534Z,7.12
2018-01-18T01:03:37.319Z,7.15
2018-01-18T01:04:46.602Z,7.16
2018-01-18T01:05:56.710Z,7.13
2018-01-18T01:07:06.817Z,7.23
2018-01-18T01:08:16.365Z,7.23
2018-01-18T01:09:26.415Z,7.23
2018-01-18T01:10:36.454Z,7.29
2018-01-18T01:11:46.542Z,7.33
2018-01-18T01:12:56.596Z,7.39
2018-01-18T01:14:06.644Z,7.4
2018-01-18T01:15:16.685Z,7.36
2018-01-18T01:16:26.730Z,7.31
2018-01-18T01:17:36.249Z,7.34
2018-01-18T01:18:46.318Z,7.37
2018-01-18T01:19:56.383Z,7.4
2018-01-18T01:21:06.423Z,7.4
2018-01-18T01:22:16.208Z,7.36
2018-01-18T01:23:26.269Z,7.37
2018-01-18T01:34:42.914Z,7.39
2018-01-18T01:35:52.437Z,7.37
2018-01-18T01:37:02.479Z,7.41
2018-01-18T01:38:12.276Z,7.47
2018-01-18T01:39:22.372Z,7.45
2018-01-18T01:40:32.417Z,7.36
2018-01-18T01:41:42.211Z,7.41
2018-01-18T01:42:51.988Z,7.31
2018-01-18T01:44:02.026Z,7.29
2018-01-18T01:45:12.132Z,7.22
2018-01-18T01:46:22.170Z,7.26
2018-01-18T01:47:32.227Z,7.21
2018-01-18T01:48:42.287Z,7.29
2018-01-18T01:49:52.344Z,7.23
2018-01-18T01:51:02.404Z,7.27
2018-01-18T01:52:12.444Z,7.16
2018-01-18T01:53:22.491Z,7.13
2018-01-18T01:54:32.561Z,7.04
2018-01-18T01:55:42.601Z,7.04
2018-01-18T01:56:52.413Z,6.98
2018-01-18T01:58:02.467Z,7
2018-01-18T01:59:12.531Z,6.95
2018-01-18T02:00:22.576Z,7.01
2018-01-18T02:01:32.624Z,6.97
2018-01-18T02:02:42.657Z,6.91
2018-01-18T02:03:52.709Z,6.95
2018-01-18T02:05:02.764Z,6.98
2018-01-18T02:06:12.798Z,6.95
2018-01-18T02:07:22.849Z,7
2018-01-18T02:08:32.987Z,6.98
2018-01-18T02:09:43.033Z,6.97
2018-01-18T02:10:53.064Z,6.94
2018-01-18T02:12:03.126Z,6.93
2018-01-18T02:13:13.163Z,6.86
2018-01-18T02:14:23.195Z,6.93
2018-01-18T02:15:33.242Z,6.82
2018-01-18T02:16:43.288Z,6.76
2018-01-18T02:17:53.337Z,6.7
2018-01-18T02:19:03.409Z,6.68
2018-01-18T02:20:14.514Z,6.72
2018-01-18T02:21:24.560Z,6.67
2018-01-18T02:22:34.612Z,6.58
2018-01-18T02:23:44.671Z,6.54
2018-01-18T02:24:54.701Z,6.55
2018-01-18T02:26:04.728Z,6.42
2018-01-18T02:27:14.782Z,6.46
2018-01-18T02:28:24.846Z,6.39
2018-01-18T02:29:34.897Z,6.34
2018-01-18T02:30:45.032Z,6.39
2018-01-18T02:31:55.133Z,6.34
2018-01-18T02:33:05.173Z,6.29
2018-01-18T02:34:15.235Z,6.33
2018-01-18T02:35:25.281Z,6.15
2018-01-18T02:36:35.055Z,6.24
2018-01-18T02:37:45.149Z,6.21
2018-01-18T02:38:54.929Z,6.1
2018-01-18T02:40:04.963Z,6.06
2018-01-18T02:41:15.010Z,6.24
2018-01-18T02:42:24.808Z,6.07
2018-01-18T02:43:34.898Z,6.13
2018-01-18T02:44:44.410Z,6.07
2018-01-18T02:45:53.940Z,6.05
2018-01-18T02:47:03.989Z,6
2018-01-18T02:48:13.828Z,5.95
2018-01-18T02:49:23.933Z,6.03
2018-01-18T02:50:33.978Z,5.89
2018-01-18T02:51:44.034Z,5.98
2018-01-18T02:52:54.083Z,5.91
2018-01-18T02:54:03.599Z,5.96
2018-01-18T02:55:13.700Z,5.85
2018-01-18T02:56:23.743Z,5.96
2018-01-18T02:57:33.785Z,5.84
2018-01-18T02:58:43.837Z,5.82
2018-01-18T02:59:53.928Z,5.85
2018-01-18T03:01:04.072Z,5.78
2018-01-18T03:02:14.942Z,5.87
2018-01-18T03:34:33.671Z,3.17
2018-01-18T03:35:43.727Z,3.06
2018-01-18T03:36:53.755Z,3.11
2018-01-18T03:38:03.545Z,3.2
2018-01-18T03:39:13.592Z,3.17
2018-01-18T03:40:23.424Z,3.26
2018-01-18T03:41:33.445Z,3.4
2018-01-18T03:42:43.488Z,3.51
2018-01-18T03:43:53.560Z,3.66
2018-01-18T03:45:03.602Z,3.78
2018-01-18T03:46:13.703Z,3.9
2018-01-18T03:47:23.758Z,4.02
2018-01-18T03:48:33.804Z,4.12
2018-01-18T03:49:43.866Z,4.17
2018-01-18T03:50:53.911Z,4.36
2018-01-18T03:52:04.000Z,4.46
2018-01-18T03:53:14.054Z,4.54
2018-01-18T03:54:24.144Z,4.61
2018-01-18T03:55:33.923Z,4.71
2018-01-18T03:56:43.968Z,4.84
2018-01-18T03:57:54.058Z,4.98
2018-01-18T03:59:03.838Z,5
2018-01-18T04:00:13.624Z,5.09
2018-01-18T04:01:23.657Z,5.06
2018-01-18T04:02:33.694Z,5.09
2018-01-18T04:03:43.841Z,5.12
2018-01-18T04:04:53.943Z,5.23
2018-01-18T04:06:03.733Z,5.31
2018-01-18T04:07:13.783Z,5.34
2018-01-18T04:08:23.570Z,5.3
2018-01-18T04:09:33.353Z,5.39
2018-01-18T04:10:43.410Z,5.42
2018-01-18T04:11:53.475Z,5.54
2018-01-18T04:13:03.515Z,5.55
2018-01-18T04:14:13.552Z,5.59
2018-01-18T04:15:23.592Z,5.6
2018-01-18T04:16:33.628Z,5.57
2018-01-18T04:17:43.412Z,5.66
2018-01-18T04:18:53.467Z,5.57
2018-01-18T04:20:03.250Z,5.64
2018-01-18T04:21:13.290Z,5.59
2018-01-18T04:22:23.342Z,5.55
2018-01-18T04:23:33.117Z,5.6
2018-01-18T04:24:43.165Z,5.6
2018-01-18T04:25:53.219Z,5.62
2018-01-18T04:27:03.064Z,5.55
2018-01-18T04:28:13.121Z,5.66
2018-01-18T04:29:22.917Z,5.67
2018-01-18T04:30:32.955Z,5.64
2018-01-18T04:31:42.997Z,5.59
2018-01-18T04:32:52.802Z,5.62
2018-01-18T04:34:02.849Z,5.69
2018-01-18T04:35:12.652Z,5.69
2018-01-18T04:36:22.438Z,5.75
2018-01-18T04:37:32.472Z,5.7
2018-01-18T04:38:42.608Z,5.63
2018-01-18T04:39:52.717Z,5.63
2018-01-18T04:41:02.747Z,5.63
2018-01-18T04:42:12.540Z,5.69
2018-01-18T04:43:22.593Z,5.73
2018-01-18T04:44:32.432Z,5.78
2018-01-18T04:45:42.477Z,5.66
2018-01-18T04:46:52.509Z,5.67
2018-01-18T04:48:02.610Z,5.69
2018-01-18T04:49:12.648Z,5.69
2018-01-18T04:50:22.736Z,5.73
2018-01-18T04:51:32.784Z,5.67
2018-01-18T04:52:42.567Z,5.63
2018-01-18T04:53:52.619Z,5.7
2018-01-18T04:55:02.672Z,5.73
2018-01-18T04:56:12.500Z,5.7
2018-01-18T04:57:22.565Z,5.8
2018-01-18T04:58:32.663Z,5.69
2018-01-18T04:59:42.712Z,5.69
2018-01-18T05:00:52.752Z,5.66
2018-01-18T05:02:02.795Z,5.69
2018-01-18T05:03:12.838Z,5.69
2018-01-18T05:04:22.630Z,5.78
2018-01-18T05:05:32.440Z,5.8
2018-01-18T05:06:42.490Z,5.73
2018-01-18T05:07:52.585Z,5.8
2018-01-18T05:09:02.632Z,5.81
2018-01-18T05:10:12.667Z,5.78
2018-01-18T05:11:22.699Z,5.8
2018-01-18T05:12:32.490Z,5.78
2018-01-18T05:13:42.578Z,5.8
2018-01-18T05:14:52.676Z,5.77
2018-01-18T05:16:02.270Z,5.75
2018-01-18T05:17:12.326Z,5.81
2018-01-18T05:18:22.165Z,5.77
2018-01-18T05:19:31.993Z,5.78
2018-01-18T05:20:41.780Z,5.77
2018-01-18T05:21:51.576Z,5.73
2018-01-18T05:23:01.639Z,5.81
2018-01-18T05:24:11.682Z,5.81
2018-01-18T05:25:21.817Z,5.77
2018-01-18T05:26:31.338Z,5.81
2018-01-18T05:27:41.380Z,5.8
2018-01-18T05:28:51.416Z,5.75
2018-01-18T05:30:01.217Z,5.87
2018-01-18T05:31:11.312Z,5.89
2018-01-18T05:32:21.354Z,5.88
2018-01-18T05:33:31.406Z,5.84
2018-01-18T05:34:40.926Z,5.84
2018-01-18T05:35:50.987Z,5.95
2018-01-18T05:37:01.144Z,5.96
2018-01-18T05:38:10.985Z,5.89
2018-01-18T05:39:21.034Z,5.92
2018-01-18T05:40:31.080Z,5.85
2018-01-18T05:41:41.112Z,5.81
2018-01-18T05:42:51.258Z,5.84
2018-01-18T05:44:01.319Z,5.84
2018-01-18T05:45:11.375Z,5.88
2018-01-18T05:46:21.410Z,5.88
2018-01-18T05:47:31.451Z,5.96
2018-01-18T05:48:41.605Z,5.92
2018-01-18T05:49:51.384Z,5.88
2018-01-18T05:51:01.171Z,5.84
2018-01-18T05:52:10.950Z,5.82
2018-01-18T05:53:20.998Z,5.81
2018-01-18T05:54:30.576Z,5.81
2018-01-18T05:55:40.633Z,5.78
2018-01-18T05:56:50.674Z,5.75
2018-01-18T05:58:00.737Z,5.75
2018-01-18T05:59:10.564Z,5.88
2018-01-18T06:00:20.656Z,5.78
2018-01-18T06:01:30.176Z,5.75
2018-01-18T06:02:39.955Z,5.82
2018-01-18T06:03:49.987Z,5.85
2018-01-18T06:05:00.029Z,5.82
2018-01-18T06:06:09.869Z,5.81
2018-01-18T06:07:19.920Z,5.84
2018-01-18T06:08:29.724Z,5.8
2018-01-18T06:09:39.502Z,5.82
2018-01-18T06:10:49.542Z,5.85
2018-01-18T06:11:59.083Z,5.82
2018-01-18T06:13:09.145Z,5.81
2018-01-18T06:14:19.207Z,5.81
2018-01-18T06:15:29.279Z,5.81
2018-01-18T06:16:39.314Z,5.85
2018-01-18T06:17:49.137Z,5.87
2018-01-18T06:18:58.926Z,5.92
2018-01-18T06:20:08.972Z,5.82
2018-01-18T06:21:19.024Z,5.84
2018-01-18T06:22:29.072Z,5.88
2018-01-18T06:23:39.179Z,5.89
2018-01-18T06:24:48.975Z,5.78
2018-01-18T06:25:59.018Z,5.84
2018-01-18T06:27:09.055Z,5.88
2018-01-18T06:28:19.098Z,5.81
2018-01-18T06:29:29.544Z,5.85
2018-01-18T06:30:39.328Z,5.88
2018-01-18T06:31:49.376Z,5.89
2018-01-18T06:32:59.431Z,5.85
2018-01-18T06:34:09.231Z,5.95
2018-01-18T06:35:19.323Z,5.87
2018-01-18T06:36:29.111Z,5.99
2018-01-18T06:37:39.155Z,5.92
2018-01-18T06:38:48.679Z,5.92
2018-01-18T06:39:58.216Z,6.05
2018-01-18T06:41:08.042Z,6.03
2018-01-18T06:42:18.073Z,5.99
2018-01-18T06:43:28.130Z,5.98
2018-01-18T06:44:37.907Z,6.03
2018-01-18T06:45:47.717Z,6.05
2018-01-18T06:46:57.760Z,5.99
2018-01-18T06:48:07.272Z,6.02
2018-01-18T06:49:17.333Z,6.13
2018-01-18T06:50:27.373Z,6.03
2018-01-18T06:51:36.903Z,6.05
2018-01-18T06:52:46.763Z,6.07
2018-01-18T06:53:56.315Z,6.09
2018-01-18T06:55:06.344Z,6.17
2018-01-18T06:56:16.395Z,6.1
2018-01-18T06:57:25.922Z,6.18
2018-01-18T06:58:35.996Z,6.2
2018-01-18T06:59:46.035Z,6.29
2018-01-18T07:00:56.081Z,6.37
2018-01-18T07:02:05.869Z,6.28
2018-01-18T07:03:15.915Z,6.33
2018-01-18T07:04:26.011Z,6.33
2018-01-18T07:05:35.797Z,6.47
2018-01-18T07:06:45.852Z,6.46
2018-01-18T07:07:55.640Z,6.51
2018-01-18T07:09:05.422Z,6.51
2018-01-18T07:10:15.220Z,6.62
2018-01-18T07:11:25.326Z,6.62
2018-01-18T07:12:35.113Z,6.68
2018-01-18T07:13:45.163Z,6.75
2018-01-18T07:14:55.222Z,6.79
2018-01-18T07:16:05.294Z,6.79
2018-01-18T07:17:15.320Z,6.8
2018-01-18T07:18:25.363Z,6.86
2018-01-18T07:19:35.418Z,6.79
2018-01-18T07:20:45.481Z,6.91
2018-01-18T07:21:55.322Z,6.98
2018-01-18T07:23:06.576Z,7.05
2018-01-18T07:24:16.691Z,7.09
2018-01-18T07:25:26.748Z,7.23
2018-01-18T07:26:36.794Z,7.21
2018-01-18T07:27:46.321Z,7.19
2018-01-18T07:28:56.385Z,7.37
2018-01-18T07:30:07.029Z,7.45
2018-01-18T07:31:17.641Z,7.64
2018-01-18T07:32:27.709Z,7.75
2018-01-18T07:33:37.769Z,7.89
2018-01-18T07:34:47.808Z,7.99
2018-01-18T07:35:57.849Z,8.17
2018-01-18T07:37:07.656Z,8.31
2018-01-18T07:38:17.897Z,8.46
2018-01-18T07:39:27.926Z,8.68
2018-01-18T07:40:37.992Z,8.83
2018-01-18T07:41:48.096Z,8.69
2018-01-18T07:42:58.147Z,8.72
2018-01-18T07:44:08.203Z,8.65
2018-01-18T07:45:17.983Z,8.71
2018-01-18T07:46:28.014Z,8.77
2018-01-18T07:47:38.061Z,8.71
2018-01-18T07:48:48.131Z,8.71
2018-01-18T07:49:58.191Z,8.77
2018-01-18T07:51:08.253Z,8.83
2018-01-18T07:52:18.310Z,8.79
2018-01-18T07:53:28.091Z,8.89
2018-01-18T07:54:37.871Z,8.86
2018-01-18T07:55:47.913Z,8.86
2018-01-18T07:56:57.961Z,8.89
2018-01-18T07:58:07.508Z,8.98
2018-01-18T07:59:17.601Z,8.98
2018-01-18T08:00:27.494Z,8.98
2018-01-18T08:01:37.561Z,9.01
2018-01-18T08:02:47.620Z,9.12
2018-01-18T08:03:57.395Z,9.12
2018-01-18T08:05:07.464Z,9.14
2018-01-18T08:06:17.302Z,9.19
2018-01-18T08:07:27.747Z,9.19
2018-01-18T08:08:37.843Z,9.23
2018-01-18T08:09:48.850Z,9.19
2018-01-18T08:10:58.625Z,9.27
2018-01-18T08:12:08.732Z,9.23
2018-01-18T08:13:18.806Z,9.19
2018-01-18T08:14:29.351Z,9.23
2018-01-18T08:15:40.468Z,9.24
2018-01-18T08:16:50.251Z,9.3
2018-01-18T08:18:00.036Z,9.26
2018-01-18T08:19:10.071Z,9.27
2018-01-18T08:20:20.107Z,9.34
2018-01-18T08:21:29.899Z,9.42
2018-01-18T08:22:39.930Z,9.47
2018-01-18T08:23:49.776Z,9.53
2018-01-18T08:24:59.849Z,9.64
2018-01-18T08:26:09.897Z,9.82
2018-01-18T08:27:19.687Z,9.84
2018-01-18T08:28:29.728Z,9.9
2018-01-18T08:29:39.621Z,9.82
2018-01-18T08:30:49.670Z,9.81
2018-01-18T08:31:59.727Z,9.93
2018-01-18T08:33:09.849Z,9.81
2018-01-18T08:34:19.975Z,9.99
2018-01-18T08:35:29.818Z,9.98
2018-01-18T08:36:39.876Z,10.03
2018-01-18T08:37:49.677Z,10.11
2018-01-18T08:38:59.728Z,10.28
2018-01-18T08:40:09.260Z,10.42
2018-01-18T08:41:19.407Z,10.54
2018-01-18T08:42:29.209Z,10.51
2018-01-18T08:43:39.015Z,10.46
2018-01-18T08:44:49.065Z,10.58
2018-01-18T08:45:58.866Z,10.65
2018-01-18T08:47:08.917Z,10.66
2018-01-18T08:48:18.952Z,10.76
2018-01-18T08:49:29.014Z,10.69
2018-01-18T08:50:39.099Z,10.7
2018-01-18T08:51:49.172Z,10.73
2018-01-18T08:52:59.061Z,10.63
2018-01-18T08:54:09.113Z,10.77
2018-01-18T08:55:19.165Z,10.77
2018-01-18T08:56:29.217Z,10.91
2018-01-18T08:57:39.319Z,10.98
2018-01-18T08:58:49.354Z,11
2018-01-18T08:59:59.425Z,10.94
2018-01-18T09:01:09.213Z,10.92
2018-01-18T09:02:19.020Z,11.03
2018-01-18T09:03:29.099Z,10.95
2018-01-18T09:04:40.698Z,11.02
2018-01-18T09:05:50.753Z,11.08
2018-01-18T09:07:00.561Z,11.02
2018-01-18T09:08:10.619Z,11.06
2018-01-18T09:09:20.611Z,11.05
2018-01-18T09:10:31.182Z,11.13
2018-01-18T09:11:41.286Z,11.12
2018-01-18T09:12:51.845Z,11.15
2018-01-18T09:14:02.919Z,11.28
2018-01-18T09:15:12.758Z,11.23
2018-01-18T09:16:22.835Z,11.21
2018-01-18T09:17:32.902Z,11.28
2018-01-18T09:18:43.831Z,11.23
2018-01-18T09:19:54.480Z,11.2
2018-01-18T09:21:04.567Z,11.18
2018-01-18T09:22:14.746Z,11.2
2018-01-18T09:23:24.812Z,11.15
2018-01-18T09:24:34.612Z,11.18
2018-01-18T09:25:47.124Z,11.26
2018-01-18T09:27:00.111Z,11.21
2018-01-18T09:28:10.324Z,11.23
2018-01-18T09:29:20.381Z,11.23
2018-01-18T09:30:30.650Z,11.18
2018-01-18T09:31:40.697Z,11.27
2018-01-18T09:32:50.744Z,11.28
2018-01-18T09:34:00.625Z,11.15
2018-01-18T09:35:10.470Z,11.3
2018-01-18T09:36:20.519Z,11.24
2018-01-18T09:37:30.296Z,11.18
2018-01-18T09:38:40.080Z,11.27
2018-01-18T09:39:49.879Z,11.21
2018-01-18T09:40:59.947Z,11.24
2018-01-18T09:42:09.736Z,11.26
2018-01-18T09:43:19.533Z,11.35
2018-01-18T09:44:30.688Z,11.41
2018-01-18T09:45:40.848Z,11.31
2018-01-18T09:46:50.911Z,11.43
2018-01-18T09:48:00.968Z,11.49
2018-01-18T09:49:11.032Z,11.67
2018-01-18T09:50:21.121Z,11.78
2018-01-18T09:51:30.676Z,11.76
2018-01-18T09:52:40.744Z,11.84
2018-01-18T09:53:50.788Z,11.75
2018-01-18T09:55:00.842Z,11.67
2018-01-18T09:56:10.904Z,11.71
2018-01-18T09:57:21.016Z,11.75
2018-01-18T09:58:31.085Z,11.79
2018-01-18T09:59:41.148Z,11.68
2018-01-18T10:00:51.198Z,11.68
2018-01-18T10:02:01.255Z,11.68
2018-01-18T10:03:11.379Z,11.57
2018-01-18T10:04:20.919Z,11.6
2018-01-18T10:05:30.989Z,11.51
2018-01-18T10:06:41.055Z,11.49
2018-01-18T10:07:50.854Z,11.42
2018-01-18T10:09:00.751Z,11.46
2018-01-18T10:10:10.542Z,11.42
2018-01-18T10:11:20.595Z,11.42
2018-01-18T10:12:30.627Z,11.42
2018-01-18T10:13:40.684Z,11.46
2018-01-18T10:14:50.814Z,11.59
2018-01-18T10:16:00.864Z,11.51
2018-01-18T10:17:10.677Z,11.53
2018-01-18T10:18:20.474Z,11.51
2018-01-18T10:19:30.015Z,11.57
2018-01-18T10:20:40.189Z,11.66
2018-01-18T10:21:50.001Z,11.57
2018-01-18T10:23:00.077Z,11.67
2018-01-18T10:24:09.921Z,11.51
2018-01-18T10:25:19.724Z,11.43
2018-01-18T10:26:30.038Z,11.41
2018-01-18T10:27:40.097Z,11.31
2018-01-18T10:28:50.153Z,11.24
2018-01-18T10:30:00.206Z,11.26
2018-01-18T10:31:09.990Z,11.21
2018-01-18T10:32:20.098Z,11.13
2018-01-18T10:33:29.900Z,11.09
2018-01-18T10:34:39.969Z,11.1
2018-01-18T10:35:49.754Z,11.05
2018-01-18T10:37:00.241Z,10.97
2018-01-18T10:38:10.063Z,10.94
2018-01-18T10:39:19.858Z,10.83
2018-01-18T10:40:29.921Z,10.87
2018-01-18T10:41:39.984Z,10.83
2018-01-18T10:42:50.095Z,10.85
2018-01-18T10:44:00.161Z,10.76
2018-01-18T10:45:10.207Z,10.73
2018-01-18T10:46:20.009Z,10.65
2018-01-18T10:47:30.055Z,10.52
2018-01-18T10:48:40.109Z,10.47
2018-01-18T10:49:50.214Z,10.35
2018-01-18T10:51:00.023Z,10.36
2018-01-18T10:52:10.089Z,10.21
2018-01-18T10:53:20.143Z,10.31
2018-01-18T10:54:30.216Z,10.23
2018-01-18T10:55:40.052Z,10.25
2018-01-18T10:56:49.854Z,10.15
2018-01-18T10:57:59.917Z,10.15
2018-01-18T10:59:09.711Z,10.1
2018-01-18T11:00:19.803Z,10.08
2018-01-18T11:01:29.917Z,10.03
2018-01-18T11:02:40.007Z,10
2018-01-18T11:03:49.805Z,9.88
2018-01-18T11:04:59.658Z,9.89
2018-01-18T11:06:09.712Z,9.89
2018-01-18T11:07:19.839Z,9.92
2018-01-18T11:08:29.618Z,9.93
2018-01-18T11:09:39.679Z,9.88
2018-01-18T11:10:49.500Z,9.77
2018-01-18T11:11:59.573Z,9.81
2018-01-18T11:13:09.635Z,9.88
2018-01-18T11:14:19.720Z,9.93
2018-01-18T11:15:29.265Z,9.95
2018-01-18T11:16:39.061Z,9.99
2018-01-18T11:17:49.765Z,9.89
2018-01-18T11:18:59.931Z,9.78
2018-01-18T11:20:09.991Z,9.84
2018-01-18T11:21:20.030Z,9.89
2018-01-18T11:22:29.582Z,9.75
2018-01-18T11:23:39.668Z,9.8
2018-01-18T11:24:49.479Z,9.78
2018-01-18T11:25:59.280Z,9.78
2018-01-18T11:27:09.378Z,9.72
2018-01-18T11:28:19.444Z,9.74
2018-01-18T11:29:29.238Z,9.64
2018-01-18T11:30:39.301Z,9.55
2018-01-18T11:31:49.351Z,9.56
2018-01-18T11:32:59.163Z,9.41
2018-01-18T11:34:09.465Z,9.45
2018-01-18T11:35:19.520Z,9.41
2018-01-18T11:36:29.698Z,9.32
2018-01-18T11:37:39.502Z,9.34
2018-01-18T11:38:49.569Z,9.17
2018-01-18T11:39:59.363Z,9.26
2018-01-18T11:41:09.481Z,9.17
2018-01-18T11:42:19.611Z,9.2
2018-01-18T11:43:29.734Z,9.16
2018-01-18T11:44:39.805Z,9.2
2018-01-18T11:45:49.901Z,9.12
2018-01-18T11:46:59.695Z,9.09
2018-01-18T11:48:09.825Z,9.12
2018-01-18T11:49:20.039Z,9.09
2018-01-18T11:50:30.134Z,9.16
2018-01-18T11:51:40.174Z,9.17
2018-01-18T11:52:50.210Z,9.16
2018-01-18T11:54:00.385Z,9.08
2018-01-18T11:55:10.446Z,9.19
2018-01-18T11:56:20.518Z,9.17
2018-01-18T11:57:30.314Z,9.24
2018-01-18T11:58:40.383Z,9.21
2018-01-18T11:59:50.188Z,9.27
2018-01-18T12:01:00.254Z,9.24
2018-01-18T12:02:10.300Z,9.35
2018-01-18T12:03:20.386Z,9.37
2018-01-18T12:04:30.207Z,9.38
2018-01-18T12:05:40.291Z,9.27
2018-01-18T12:06:50.080Z,9.3
2018-01-18T12:08:00.401Z,9.23
2018-01-18T12:09:10.208Z,9.21
2018-01-18T12:10:20.249Z,9.27
2018-01-18T12:11:30.419Z,9.2
2018-01-18T12:12:40.206Z,9.24
2018-01-18T12:13:50.101Z,9.21
2018-01-18T12:15:00.165Z,9.2
2018-01-18T12:16:11.397Z,9.14
2018-01-18T12:17:22.132Z,9.12
2018-01-18T12:18:31.967Z,9.14
2018-01-18T12:19:41.758Z,9.19
2018-01-18T12:20:51.808Z,9.16
2018-01-18T12:22:01.893Z,9.2
2018-01-18T12:23:11.995Z,9.16
2018-01-18T12:24:21.791Z,9.08
2018-01-18T12:25:31.854Z,9.12
2018-01-18T12:26:41.658Z,9.12
2018-01-18T12:27:51.734Z,9.14
2018-01-18T12:29:01.846Z,9.11
2018-01-18T12:30:11.900Z,9.09
2018-01-18T12:31:22.017Z,9.08
2018-01-18T12:32:31.820Z,9.17
2018-01-18T12:33:41.986Z,9.24
2018-01-18T12:34:52.133Z,9.2
2018-01-18T12:36:02.192Z,9.09
2018-01-18T12:37:12.251Z,9.17
2018-01-18T12:38:22.330Z,9.21
2018-01-18T12:39:32.392Z,9.2
2018-01-18T12:40:42.504Z,9.16
2018-01-18T12:41:52.551Z,9.21
2018-01-18T12:43:02.617Z,9.2
2018-01-18T12:44:12.665Z,9.3
2018-01-18T12:45:22.707Z,9.29
2018-01-18T12:46:32.609Z,9.37
2018-01-18T12:47:42.431Z,9.35
2018-01-18T12:48:52.284Z,9.41
2018-01-18T12:50:02.413Z,9.47
2018-01-18T12:51:13.475Z,9.56
2018-01-18T12:52:23.577Z,9.64
2018-01-18T12:53:33.650Z,9.8
2018-01-18T12:54:43.462Z,9.77
2018-01-18T12:55:53.511Z,9.84
2018-01-18T12:57:03.574Z,9.99
2018-01-18T12:58:13.764Z,10.11
2018-01-18T12:59:23.875Z,10.2
2018-01-18T13:00:33.151Z,10.29
2018-01-18T13:01:43.218Z,10.26
2018-01-18T13:02:53.252Z,10.25
2018-01-18T13:04:03.117Z,10.31
2018-01-18T13:05:13.189Z,10.25
2018-01-18T13:06:22.999Z,10.29
2018-01-18T13:07:33.084Z,10.14
2018-01-18T13:08:43.155Z,10.1
2018-01-18T13:09:53.266Z,10.05
2018-01-18T13:11:03.354Z,9.98
2018-01-18T13:12:13.154Z,9.93
2018-01-18T13:13:23.217Z,9.85
2018-01-18T13:14:33.286Z,9.89
2018-01-18T13:15:43.414Z,9.8
2018-01-18T13:16:53.489Z,9.85
2018-01-18T13:18:03.540Z,9.89
2018-01-18T13:19:13.329Z,9.89
2018-01-18T13:20:23.393Z,9.88
2018-01-18T13:21:33.959Z,9.82
2018-01-18T13:22:44.828Z,9.82
2018-01-18T13:23:54.900Z,9.78
2018-01-18T13:25:04.973Z,9.74
2018-01-18T13:26:15.039Z,9.81
2018-01-18T13:27:24.840Z,9.81
2018-01-18T13:28:34.881Z,9.93
2018-01-18T13:29:44.713Z,9.93
2018-01-18T13:30:54.766Z,9.99
2018-01-18T13:32:04.852Z,9.93
2018-01-18T13:33:14.992Z,9.92
2018-01-18T13:34:25.066Z,9.92
2018-01-18T13:35:35.124Z,9.85
2018-01-18T13:36:45.196Z,9.81
2018-01-18T13:37:55.259Z,9.8
2018-01-18T13:39:05.453Z,9.93
2018-01-18T13:40:15.497Z,9.88
2018-01-18T13:41:25.805Z,9.81
2018-01-18T13:42:36.533Z,9.71
2018-01-18T13:43:46.611Z,9.72
2018-01-18T13:44:56.706Z,9.63
2018-01-18T13:46:06.772Z,9.62
2018-01-18T13:47:16.593Z,9.63
2018-01-18T13:48:26.427Z,9.7
2018-01-18T13:49:36.500Z,9.59
2018-01-18T13:50:46.985Z,9.63
2018-01-18T13:51:57.102Z,9.66
2018-01-18T13:53:07.156Z,9.62
2018-01-18T13:54:17.201Z,9.6
2018-01-18T13:55:27.319Z,9.48
2018-01-18T13:56:37.394Z,9.6
2018-01-18T13:57:47.178Z,9.48
2018-01-18T13:58:57.236Z,9.56
2018-01-18T14:00:07.338Z,9.53
2018-01-18T14:01:17.402Z,9.59
2018-01-18T14:02:27.208Z,9.62
2018-01-18T14:03:37.261Z,9.62
2018-01-18T14:04:47.107Z,9.6
2018-01-18T14:05:57.167Z,9.6
2018-01-18T14:07:07.240Z,9.63
2018-01-18T14:08:17.655Z,9.59
2018-01-18T14:09:27.722Z,9.57
2018-01-18T14:10:37.860Z,9.56
2018-01-18T14:11:47.914Z,9.48
2018-01-18T14:12:57.979Z,9.52
2018-01-18T14:14:08.020Z,9.45
2018-01-18T14:15:18.067Z,9.41
2018-01-18T14:16:27.958Z,9.42
2018-01-18T14:17:38.024Z,9.38
2018-01-18T14:18:48.137Z,9.26
2018-01-18T14:19:58.218Z,9.32
2018-01-18T14:21:08.292Z,9.24
2018-01-18T14:22:18.397Z,9.32
2018-01-18T14:23:30.301Z,9.38
2018-01-18T14:24:40.119Z,9.39
2018-01-18T14:25:50.210Z,9.39
2018-01-18T14:27:00.031Z,9.39
2018-01-18T14:28:10.144Z,9.42
2018-01-18T14:29:20.201Z,9.39
2018-01-18T14:30:30.267Z,9.45
2018-01-18T14:31:40.344Z,9.41
2018-01-18T14:32:50.147Z,9.42
2018-01-18T14:34:00.298Z,9.38
2018-01-18T14:35:10.346Z,9.34
2018-01-18T14:36:20.415Z,9.37
2018-01-18T14:37:30.495Z,9.38
2018-01-18T14:38:40.561Z,9.38
2018-01-18T14:39:50.682Z,9.24
2018-01-18T14:41:00.565Z,9.34
2018-01-18T14:42:10.381Z,9.37
2018-01-18T14:43:20.442Z,9.35
2018-01-18T14:44:30.514Z,9.39
2018-01-18T14:45:40.357Z,9.26
2018-01-18T14:46:50.214Z,9.37
2018-01-18T14:48:00.056Z,9.45
2018-01-18T14:49:10.126Z,9.35
2018-01-18T14:50:19.920Z,9.41
2018-01-18T14:51:30.070Z,9.42
2018-01-18T14:52:40.142Z,9.52
2018-01-18T14:53:49.708Z,9.39
2018-01-18T14:54:59.774Z,9.56
2018-01-18T14:56:09.865Z,9.56
2018-01-18T14:57:19.955Z,9.53
2018-01-18T14:58:30.029Z,9.56
2018-01-18T14:59:40.081Z,9.53
2018-01-18T15:00:50.157Z,9.5
2018-01-18T15:02:00.221Z,9.45
2018-01-18T15:03:10.377Z,9.53
2018-01-18T15:04:20.183Z,9.5
2018-01-18T15:05:30.241Z,9.55
2018-01-18T15:06:40.331Z,9.47
2018-01-18T15:07:50.396Z,9.52
2018-01-18T15:09:00.466Z,9.52
2018-01-18T15:10:10.519Z,9.41
2018-01-18T15:11:20.579Z,9.44
2018-01-18T15:12:30.657Z,9.32
2018-01-18T15:13:40.710Z,9.17
2018-01-18T15:14:50.866Z,9.16
2018-01-18T15:16:00.937Z,9.16
2018-01-18T15:17:10.971Z,9.09
2018-01-18T15:18:20.777Z,9.09
2018-01-18T15:19:30.851Z,9
2018-01-18T15:20:40.903Z,9.08
2018-01-18T15:21:50.949Z,9.05
2018-01-18T15:23:01.030Z,9.17
2018-01-18T15:24:11.110Z,9.12
2018-01-18T15:25:20.892Z,9.19
2018-01-18T15:26:30.997Z,9.19
2018-01-18T15:27:41.047Z,9.21
2018-01-18T15:28:51.107Z,9.19
2018-01-18T15:30:01.166Z,9.27
2018-01-18T15:31:10.956Z,9.26
2018-01-18T15:32:21.023Z,9.37
2018-01-18T15:33:31.098Z,9.24
2018-01-18T15:34:40.412Z,9.24
2018-01-18T15:35:50.460Z,9.24
2018-01-18T15:37:00.537Z,9.27
2018-01-18T15:38:10.685Z,9.29
2018-01-18T15:39:20.761Z,9.21
2018-01-18T15:40:30.572Z,9.24
2018-01-18T15:41:40.664Z,9.27
2018-01-18T15:42:50.790Z,9.19
2018-01-18T15:44:00.783Z,9.16
2018-01-18T15:45:10.868Z,9.05
2018-01-18T15:46:20.682Z,9
2018-01-18T15:47:30.950Z,8.94
2018-01-18T15:48:41.018Z,8.92
2018-01-18T15:49:50.907Z,8.79
2018-01-18T15:51:00.969Z,8.8
2018-01-18T15:52:11.038Z,8.77
2018-01-18T15:53:21.097Z,8.82
2018-01-18T15:54:30.900Z,8.77
2018-01-18T15:55:41.022Z,8.74
2018-01-18T15:56:51.094Z,8.72
2018-01-18T15:58:01.172Z,8.69
2018-01-18T15:59:10.996Z,8.69
2018-01-18T16:00:21.042Z,8.69
2018-01-18T16:01:31.176Z,8.77
2018-01-18T16:02:40.985Z,8.67
2018-01-18T16:03:51.044Z,8.62
2018-01-18T16:05:01.131Z,8.69
2018-01-18T16:06:12.147Z,8.68
2018-01-18T16:07:21.723Z,8.68
2018-01-18T16:08:31.266Z,8.72
2018-01-18T16:09:41.341Z,8.71
2018-01-18T16:10:51.185Z,8.82
2018-01-18T16:12:01.252Z,8.69